Time;durP1;ratioP1;P1;durP2;ratioP2;P2;SDS_P1;SDS_P2;PMS_P1;PMS_P2;Temp;Humidity;BMP_temperature;BMP_pressure;BME280_temperature;BME280_humidity;BME280_pressure;Samples;Min_cycle;Max_cycle;Signal;HPM_P1;HPM_P2
2020/12/12 00:00:20;;;;;;;31.02;23.65;;;;;;;-0.27;100.00;94050.72;1032078;28;20526;-73
2020/12/12 00:00:50;;;;;;;33.90;22.98;;;;;;;-0.30;100.00;94056.06;1036498;28;20025;-72
2020/12/12 00:01:21;;;;;;;34.72;24.63;;;;;;;-0.25;100.00;94048.88;1040584;28;20022;-71
2020/12/12 00:01:53;;;;;;;33.78;23.17;;;;;;;-0.25;100.00;94048.88;1036504;28;20053;-72
2020/12/12 00:02:23;;;;;;;31.00;23.42;;;;;;;-0.26;100.00;94054.97;1028585;28;20026;-73
2020/12/12 00:02:54;;;;;;;31.50;23.15;;;;;;;-0.31;100.00;94041.53;1024487;29;20266;-72
2020/12/12 00:03:26;;;;;;;32.10;23.75;;;;;;;-0.29;100.00;94056.88;1024514;28;20041;-71
2020/12/12 00:03:57;;;;;;;34.85;23.58;;;;;;;-0.31;100.00;94043.28;1024431;29;20034;-72
2020/12/12 00:04:28;;;;;;;32.15;24.42;;;;;;;-0.32;100.00;94045.03;1032532;28;20726;-71
2020/12/12 00:05:00;;;;;;;34.42;24.58;;;;;;;-0.22;100.00;94050.47;1032653;28;20742;-72
2020/12/12 00:05:31;;;;;;;34.88;23.73;;;;;;;-0.20;100.00;94051.19;1032606;28;20273;-72
2020/12/12 00:06:02;;;;;;;32.17;23.27;;;;;;;-0.22;100.00;94050.47;1032643;28;20340;-72
2020/12/12 00:06:33;;;;;;;33.20;22.48;;;;;;;-0.23;100.00;94047.03;1028635;28;20100;-71
2020/12/12 00:07:03;;;;;;;39.65;24.45;;;;;;;-0.20;100.00;94053.75;1032494;28;20030;-72
2020/12/12 00:07:34;;;;;;;32.10;23.73;;;;;;;-0.16;100.00;94050.09;1032652;28;20360;-71
2020/12/12 00:08:05;;;;;;;35.88;24.92;;;;;;;-0.15;100.00;94045.75;1032574;28;20364;-73
2020/12/12 00:08:37;;;;;;;33.33;24.00;;;;;;;-0.14;100.00;94035.38;1028405;28;20519;-71
2020/12/12 00:09:08;;;;;;;35.63;23.80;;;;;;;-0.10;100.00;94041.19;1024328;29;20049;-72
2020/12/12 00:09:38;;;;;;;34.25;24.30;;;;;;;-0.12;100.00;94035.28;1024464;28;20789;-72
2020/12/12 00:10:09;;;;;;;30.35;22.92;;;;;;;-0.13;100.00;94051.63;1024400;28;20027;-72
2020/12/12 00:10:40;;;;;;;33.33;23.83;;;;;;;-0.11;100.00;94036.94;1032589;28;20403;-72
2020/12/12 00:11:11;;;;;;;34.08;23.45;;;;;;;-0.14;100.00;94035.38;1028328;28;20254;-72
2020/12/12 00:11:42;;;;;;;31.73;21.92;;;;;;;-0.21;100.00;94040.06;1032399;28;20113;-71
2020/12/12 00:12:12;;;;;;;34.70;24.95;;;;;;;-0.20;100.00;94039.16;1024446;28;20090;-72
2020/12/12 00:12:43;;;;;;;30.20;22.40;;;;;;;-0.10;100.00;94038.59;1028657;28;20080;-72
2020/12/12 00:13:15;;;;;;;31.60;21.58;;;;;;;-0.16;100.00;94036.41;1036549;28;20028;-71
2020/12/12 00:13:46;;;;;;;31.75;22.02;;;;;;;-0.32;100.00;94039.88;1028587;28;20014;-72
2020/12/12 00:14:16;;;;;;;34.53;23.42;;;;;;;-0.28;100.00;94043.94;1020454;29;20627;-72
2020/12/12 00:14:47;;;;;;;32.05;23.67;;;;;;;-0.30;100.00;94040.63;1028608;28;20097;-72
2020/12/12 00:15:18;;;;;;;32.30;22.60;;;;;;;-0.38;100.00;94044.53;1028379;28;20037;-71
2020/12/12 00:15:49;;;;;;;35.55;23.70;;;;;;;-0.38;100.00;94034.25;1028516;28;20030;-72
2020/12/12 00:16:20;;;;;;;36.65;24.85;;;;;;;-0.29;100.00;94046.59;1028468;28;20050;-71
2020/12/12 00:16:52;;;;;;;34.92;24.55;;;;;;;-0.30;100.00;94037.19;1020391;28;20701;-72
2020/12/12 00:17:23;;;;;;;33.10;22.63;;;;;;;-0.25;100.00;94036.00;1032356;28;20026;-71
2020/12/12 00:17:54;;;;;;;34.13;23.92;;;;;;;-0.29;100.00;94039.69;1032610;28;20788;-72
2020/12/12 00:18:25;;;;;;;32.22;22.90;;;;;;;-0.34;100.00;94030.56;1020614;29;20019;-72
2020/12/12 00:18:55;;;;;;;33.55;23.15;;;;;;;-0.29;100.00;94036.28;1032338;28;20018;-72
2020/12/12 00:19:26;;;;;;;34.22;25.33;;;;;;;-0.20;100.00;94036.56;1024582;28;20023;-72
2020/12/12 00:19:57;;;;;;;34.17;24.52;;;;;;;-0.21;100.00;94037.50;1024375;28;20168;-71
2020/12/12 00:20:28;;;;;;;33.05;23.25;;;;;;;-0.15;100.00;94038.88;1024485;29;20030;-71
2020/12/12 00:20:59;;;;;;;34.58;24.35;;;;;;;-0.16;100.00;94033.81;1028503;28;20414;-73
2020/12/12 00:21:30;;;;;;;32.67;23.25;;;;;;;-0.20;100.00;94038.31;1032711;28;20262;-72
2020/12/12 00:22:01;;;;;;;33.17;21.58;;;;;;;-0.26;100.00;94034.38;1028299;28;20254;-74
2020/12/12 00:22:32;;;;;;;31.67;22.55;;;;;;;-0.28;100.00;94037.94;1024435;28;20014;-72
2020/12/12 00:23:03;;;;;;;31.05;22.77;;;;;;;-0.19;100.00;94034.81;1020503;29;20468;-73
2020/12/12 00:23:34;;;;;;;31.23;22.52;;;;;;;-0.22;100.00;94022.97;1028461;28;20254;-71
2020/12/12 00:24:04;;;;;;;30.13;23.38;;;;;;;-0.23;100.00;94036.75;1024294;29;20341;-73
2020/12/12 00:24:36;;;;;;;35.90;24.63;;;;;;;-0.24;100.00;94036.84;1028321;28;20080;-72
2020/12/12 00:25:09;;;;;;;34.85;23.70;;;;;;;-0.27;100.00;94034.44;1028412;28;20136;-74
2020/12/12 00:25:39;;;;;;;32.53;22.70;;;;;;;-0.23;100.00;94023.06;1032496;28;20625;-72
2020/12/12 00:26:10;;;;;;;34.47;23.83;;;;;;;-0.20;100.00;94028.84;1024542;29;20247;-72
2020/12/12 00:26:41;;;;;;;32.97;23.98;;;;;;;-0.22;100.00;94025.53;1028388;28;20445;-72
2020/12/12 00:27:12;;;;;;;32.25;23.00;;;;;;;-0.24;100.00;94035.09;1024274;28;20395;-72
2020/12/12 00:27:42;;;;;;;35.17;23.73;;;;;;;-0.35;100.00;94014.31;1032474;28;20117;-75
2020/12/12 00:28:14;;;;;;;35.40;25.27;;;;;;;-0.28;100.00;94025.06;1024553;28;20019;-73
2020/12/12 00:28:45;;;;;;;32.92;22.10;;;;;;;-0.37;100.00;94015.34;1024507;29;20166;-72
2020/12/12 00:29:16;;;;;;;32.85;24.42;;;;;;;-0.34;100.00;94023.69;1032387;28;20355;-71
2020/12/12 00:29:47;;;;;;;33.13;23.00;;;;;;;-0.28;100.00;94030.22;1036564;28;20045;-72
2020/12/12 00:30:18;;;;;;;34.15;24.42;;;;;;;-0.21;100.00;94028.94;1032476;28;20022;-71
2020/12/12 00:30:49;;;;;;;34.65;23.85;;;;;;;-0.27;100.00;94032.69;1032232;28;20332;-71
2020/12/12 00:31:20;;;;;;;34.17;25.15;;;;;;;-0.28;100.00;94036.22;1024591;28;20023;-72
2020/12/12 00:31:58;;;;;;;34.72;24.52;;;;;;;-0.28;100.00;94028.50;1028592;28;20023;-72
2020/12/12 00:32:29;;;;;;;30.50;23.10;;;;;;;-0.34;100.00;94026.25;1032565;28;20446;-72
2020/12/12 00:33:01;;;;;;;34.70;22.35;;;;;;;-0.31;100.00;94030.41;1028306;28;20261;-71
2020/12/12 00:33:31;;;;;;;33.75;23.63;;;;;;;-0.23;100.00;94012.75;1024568;29;20047;-74
2020/12/12 00:34:03;;;;;;;38.35;25.88;;;;;;;-0.18;100.00;94022.78;1036340;28;20749;-71
2020/12/12 00:34:33;;;;;;;32.70;25.05;;;;;;;-0.17;100.00;94021.88;1032290;28;20074;-72
2020/12/12 00:35:04;;;;;;;36.03;24.60;;;;;;;-0.13;100.00;94023.34;1024339;28;20270;-73
2020/12/12 00:35:35;;;;;;;35.53;24.58;;;;;;;-0.13;100.00;94023.34;1028522;28;20026;-73
2020/12/12 00:36:05;;;;;;;31.70;23.15;;;;;;;-0.13;100.00;94025.91;1024460;28;20034;-72
2020/12/12 00:36:41;;;;;;;33.08;23.05;;;;;;;-0.18;100.00;94028.75;1024465;28;20027;-72
2020/12/12 00:37:11;;;;;;;38.75;25.25;;;;;;;-0.12;100.00;94025.00;1024319;29;20479;-74
2020/12/12 00:37:42;;;;;;;36.28;25.95;;;;;;;-0.17;100.00;94019.28;1028490;28;20259;-71
2020/12/12 00:38:13;;;;;;;31.58;23.38;;;;;;;-0.24;100.00;94016.28;1032449;28;20030;-72
2020/12/12 00:38:43;;;;;;;32.13;22.90;;;;;;;-0.34;100.00;94025.44;1028382;28;20462;-72
2020/12/12 00:39:15;;;;;;;36.38;25.00;;;;;;;-0.38;100.00;94016.25;1028379;28;20027;-72
2020/12/12 00:39:45;;;;;;;32.55;24.23;;;;;;;-0.30;100.00;94030.31;1028661;28;20023;-73
2020/12/12 00:40:16;;;;;;;34.78;23.33;;;;;;;-0.34;100.00;94028.81;1028399;28;20290;-71
2020/12/12 00:40:57;;;;;;;33.10;24.92;;;;;;;-0.23;100.00;94030.78;1036310;28;20112;-71
2020/12/12 00:41:27;;;;;;;35.10;25.25;;;;;;;-0.24;100.00;94019.66;1028323;28;20503;-72
2020/12/12 00:41:58;;;;;;;31.67;23.38;;;;;;;-0.31;100.00;94015.78;1028303;28;20266;-72
2020/12/12 00:42:29;;;;;;;34.20;22.88;;;;;;;-0.29;100.00;94019.09;1028536;28;20023;-72
2020/12/12 00:43:00;;;;;;;33.90;24.50;;;;;;;-0.30;100.00;94022.59;1040482;28;20022;-72
2020/12/12 00:43:30;;;;;;;34.92;25.48;;;;;;;-0.27;100.00;94017.25;1028378;28;20018;-72
2020/12/12 00:44:02;;;;;;;36.17;25.70;;;;;;;-0.22;100.00;94017.00;1024294;29;20034;-72
2020/12/12 00:44:32;;;;;;;35.83;26.02;;;;;;;-0.25;100.00;94007.69;1024365;29;20030;-72
2020/12/12 00:45:03;;;;;;;33.67;24.25;;;;;;;-0.23;100.00;94012.75;1024328;28;20357;-72
2020/12/12 00:45:35;;;;;;;35.35;25.75;;;;;;;-0.20;100.00;94012.59;1020479;28;20020;-71
2020/12/12 00:46:05;;;;;;;35.15;25.00;;;;;;;-0.23;100.00;94018.72;1032354;28;20661;-71
2020/12/12 00:46:36;;;;;;;38.45;25.70;;;;;;;-0.23;100.00;94021.28;1028300;28;20385;-71
2020/12/12 00:47:07;;;;;;;35.30;25.27;;;;;;;-0.23;100.00;94012.75;1028283;28;20099;-71
2020/12/12 00:47:38;;;;;;;34.72;24.02;;;;;;;-0.27;100.00;94013.88;1024231;29;20488;-72
2020/12/12 00:48:09;;;;;;;34.42;24.58;;;;;;;-0.28;100.00;94012.19;1032287;28;20502;-73
2020/12/12 00:48:40;;;;;;;33.65;23.13;;;;;;;-0.22;100.00;94012.69;1028298;28;20023;-72
2020/12/12 00:49:11;;;;;;;33.33;23.08;;;;;;;-0.20;100.00;94013.41;1024426;28;20102;-71
2020/12/12 00:49:42;;;;;;;39.70;27.08;;;;;;;-0.22;100.00;94015.25;1036397;28;20261;-71
2020/12/12 00:50:13;;;;;;;34.33;24.67;;;;;;;-0.27;100.00;93996.66;1032319;28;20262;-71
2020/12/12 00:50:45;;;;;;;36.13;25.00;;;;;;;-0.16;100.00;94006.34;1024170;29;20259;-73
2020/12/12 00:51:16;;;;;;;34.30;24.23;;;;;;;-0.14;100.00;94012.22;1032438;28;20034;-74
2020/12/12 00:51:46;;;;;;;35.03;24.38;;;;;;;-0.16;100.00;94013.25;1028293;28;20262;-72
2020/12/12 00:52:17;;;;;;;34.80;23.70;;;;;;;-0.15;100.00;94010.56;1028364;28;20018;-73
2020/12/12 00:52:48;;;;;;;35.22;25.80;;;;;;;-0.20;100.00;94012.59;1024318;29;20462;-72
2020/12/12 00:53:18;;;;;;;34.58;24.52;;;;;;;-0.21;100.00;94016.06;1028108;28;20061;-72
2020/12/12 00:53:49;;;;;;;34.88;25.27;;;;;;;-0.29;100.00;93998.50;1032427;28;20026;-71
2020/12/12 00:54:20;;;;;;;34.33;24.27;;;;;;;-0.15;100.00;94020.03;1036346;28;20026;-72
2020/12/12 00:54:50;;;;;;;34.05;24.98;;;;;;;-0.10;100.00;94016.25;1032198;28;20022;-71
2020/12/12 00:55:21;;;;;;;34.20;23.38;;;;;;;-0.07;100.00;94013.50;1032430;28;20080;-72
2020/12/12 00:55:59;;;;;;;30.55;21.95;;;;;;;-0.03;100.00;94011.56;1024297;29;20023;-71
2020/12/12 00:56:29;;;;;;;32.05;22.40;;;;;;;-0.09;100.00;94015.34;1032318;28;20033;-71
2020/12/12 00:57:00;;;;;;;34.30;23.42;;;;;;;-0.18;100.00;94010.75;1032252;28;20821;-72
2020/12/12 00:57:31;;;;;;;33.53;23.75;;;;;;;-0.21;100.00;94011.78;1032308;28;20022;-71
2020/12/12 00:58:02;;;;;;;32.95;23.77;;;;;;;-0.16;100.00;94016.63;1036360;28;20064;-72
2020/12/12 00:58:33;;;;;;;34.92;24.25;;;;;;;-0.26;100.00;94007.81;1028209;28;20055;-72
2020/12/12 00:59:03;;;;;;;35.08;24.33;;;;;;;-0.24;100.00;94011.94;1024278;29;20415;-71
2020/12/12 00:59:34;;;;;;;32.92;23.98;;;;;;;-0.29;100.00;94006.22;1036311;28;20390;-71
2020/12/12 01:00:06;;;;;;;35.00;25.20;;;;;;;-0.24;100.00;94011.94;1036433;28;20413;-75
2020/12/12 01:00:37;;;;;;;30.30;23.38;;;;;;;-0.28;100.00;94007.91;1032201;28;20022;-71
2020/12/12 01:01:08;;;;;;;34.70;25.33;;;;;;;-0.28;100.00;94010.47;1036333;28;20344;-72
2020/12/12 01:01:39;;;;;;;31.67;24.00;;;;;;;-0.22;100.00;94012.69;1032356;28;20023;-71
2020/12/12 01:02:10;;;;;;;35.08;24.73;;;;;;;-0.20;100.00;94013.41;1028357;28;20337;-73
2020/12/12 01:02:41;;;;;;;32.83;23.83;;;;;;;-0.22;100.00;94010.09;1032325;28;20410;-71
2020/12/12 01:03:12;;;;;;;33.33;24.20;;;;;;;-0.21;100.00;94022.06;1024159;29;20255;-73
2020/12/12 01:03:43;;;;;;;36.25;25.02;;;;;;;-0.22;100.00;94022.97;1032232;28;20037;-71
2020/12/12 01:04:14;;;;;;;38.22;25.83;;;;;;;-0.22;100.00;94022.16;1040287;28;20304;-72
2020/12/12 01:04:45;;;;;;;33.95;24.52;;;;;;;-0.23;100.00;94016.16;1024265;29;20281;-72
2020/12/12 01:05:16;;;;;;;34.58;24.55;;;;;;;-0.27;100.00;94013.88;1028162;28;20519;-72
2020/12/12 01:05:47;;;;;;;35.90;24.65;;;;;;;-0.34;100.00;94012.56;1032234;28;20390;-71
2020/12/12 01:06:19;;;;;;;35.50;23.40;;;;;;;-0.41;100.00;94015.50;1024163;29;20405;-71
2020/12/12 01:06:50;;;;;;;32.75;23.50;;;;;;;-0.41;100.00;94012.94;1032185;28;20501;-72
2020/12/12 01:07:22;;;;;;;32.17;22.58;;;;;;;-0.36;100.00;94011.84;1020349;29;20258;-72
2020/12/12 01:07:53;;;;;;;33.83;24.00;;;;;;;-0.37;100.00;94016.16;1024404;29;20019;-72
2020/12/12 01:08:24;;;;;;;33.58;23.90;;;;;;;-0.45;100.00;94008.91;1036320;28;20261;-72
2020/12/12 01:08:55;;;;;;;35.78;25.08;;;;;;;-0.48;100.00;94013.38;1024165;28;20310;-74
2020/12/12 01:09:26;;;;;;;38.13;25.63;;;;;;;-0.36;100.00;94012.66;1032153;28;20547;-72
2020/12/12 01:09:56;;;;;;;41.40;27.35;;;;;;;-0.39;100.00;94010.28;1028238;28;20089;-72
2020/12/12 01:10:27;;;;;;;37.05;26.80;;;;;;;-0.40;100.00;94006.03;1016370;29;20064;-72
2020/12/12 01:10:58;;;;;;;35.33;25.48;;;;;;;-0.48;100.00;93998.78;1032135;28;20038;-71
2020/12/12 01:11:29;;;;;;;34.60;25.70;;;;;;;-0.42;100.00;93995.00;1032236;28;20018;-71
2020/12/12 01:12:00;;;;;;;39.88;25.33;;;;;;;-0.49;100.00;94004.84;1027965;28;20101;-74
2020/12/12 01:12:31;;;;;;;36.42;26.15;;;;;;;-0.42;100.00;94005.31;1024160;29;20023;-73
2020/12/12 01:13:02;;;;;;;34.70;24.65;;;;;;;-0.43;100.00;94001.09;1036129;28;20458;-71
2020/12/12 01:13:32;;;;;;;36.30;25.65;;;;;;;-0.50;100.00;93999.78;1028379;28;20027;-72
2020/12/12 01:14:03;;;;;;;34.97;24.92;;;;;;;-0.49;100.00;93998.84;1024187;29;20027;-72
2020/12/12 01:14:34;;;;;;;35.30;25.60;;;;;;;-0.49;100.00;93998.84;1032310;28;20049;-72
2020/12/12 01:15:05;;;;;;;39.33;26.73;;;;;;;-0.49;100.00;93999.72;1027946;28;20046;-72
2020/12/12 01:15:36;;;;;;;37.08;25.02;;;;;;;-0.56;100.00;94005.28;1028222;28;20262;-72
2020/12/12 01:16:15;;;;;;;35.25;25.13;;;;;;;-0.61;100.00;94001.22;1024336;28;20553;-71
2020/12/12 01:16:46;;;;;;;41.95;26.38;;;;;;;-0.61;100.00;93997.84;1032289;28;20087;-71
2020/12/12 01:17:17;;;;;;;41.30;27.70;;;;;;;-0.62;100.00;93998.75;1028119;28;20496;-71
2020/12/12 01:17:47;;;;;;;36.47;26.33;;;;;;;-0.59;100.00;93998.56;1032309;28;20573;-72
2020/12/12 01:18:18;;;;;;;38.83;26.38;;;;;;;-0.62;100.00;94003.88;1036248;28;20026;-74
2020/12/12 01:18:49;;;;;;;36.28;24.95;;;;;;;-0.63;100.00;94003.06;1024365;29;20114;-71
2020/12/12 01:19:20;;;;;;;36.78;25.83;;;;;;;-0.63;100.00;94005.63;1020265;29;20032;-72
2020/12/12 01:19:51;;;;;;;38.35;25.85;;;;;;;-0.64;100.00;94004.00;1028183;28;20027;-71
2020/12/12 01:20:21;;;;;;;39.75;26.55;;;;;;;-0.64;100.00;94001.44;1028170;28;20030;-72
2020/12/12 01:20:52;;;;;;;37.38;26.98;;;;;;;-0.71;100.00;93992.41;1024214;29;20031;-71
2020/12/12 01:21:25;;;;;;;38.20;26.00;;;;;;;-0.72;100.00;94000.22;1028210;28;20019;-72
2020/12/12 01:21:55;;;;;;;37.38;27.08;;;;;;;-0.68;100.00;93997.34;1032261;28;20030;-72
2020/12/12 01:22:26;;;;;;;35.97;25.27;;;;;;;-0.67;100.00;94001.59;1028180;28;20269;-72
2020/12/12 01:22:57;;;;;;;37.42;25.35;;;;;;;-0.67;100.00;93998.19;1024251;29;20078;-71
2020/12/12 01:23:28;;;;;;;40.55;27.42;;;;;;;-0.69;100.00;93997.47;1028135;28;20513;-72
2020/12/12 01:23:59;;;;;;;37.85;25.95;;;;;;;-0.66;100.00;93994.69;1032088;28;20241;-73
2020/12/12 01:24:30;;;;;;;37.92;26.67;;;;;;;-0.69;100.00;93995.72;1027879;28;20058;-71
2020/12/12 01:25:01;;;;;;;40.30;27.33;;;;;;;-0.69;100.00;93998.28;1032265;28;20065;-70
2020/12/12 01:25:32;;;;;;;42.60;28.75;;;;;;;-0.65;100.00;93999.75;1024455;28;20157;-70
2020/12/12 01:26:04;;;;;;;39.70;27.17;;;;;;;-0.65;100.00;93994.63;1020673;29;20267;-70
2020/12/12 01:26:34;;;;;;;45.90;29.67;;;;;;;-0.67;100.00;94001.59;1032604;28;20045;-70
2020/12/12 01:27:05;;;;;;;41.35;25.90;;;;;;;-0.66;100.00;93992.97;1032574;28;20265;-70
2020/12/12 01:27:36;;;;;;;37.10;26.42;;;;;;;-0.60;100.00;93997.75;1020573;29;20063;-70
2020/12/12 01:28:07;;;;;;;40.00;27.77;;;;;;;-0.60;100.00;93997.75;1016516;29;20032;-70
2020/12/12 01:28:37;;;;;;;38.45;25.10;;;;;;;-0.55;100.00;94000.03;1028490;28;20411;-70
2020/12/12 01:29:08;;;;;;;36.63;25.58;;;;;;;-0.54;100.00;93996.56;1028473;28;20027;-70
2020/12/12 01:29:39;;;;;;;38.65;26.98;;;;;;;-0.69;100.00;93985.44;1028438;28;20027;-70
2020/12/12 01:30:10;;;;;;;38.65;26.73;;;;;;;-0.57;100.00;93994.16;1024530;29;20160;-70
2020/12/12 01:30:40;;;;;;;36.80;25.33;;;;;;;-0.54;100.00;93991.44;1020613;29;20031;-70
2020/12/12 01:31:12;;;;;;;40.95;27.60;;;;;;;-0.55;100.00;93996.66;1028576;28;20066;-70
2020/12/12 01:31:47;;;;;;;39.33;25.77;;;;;;;-0.54;100.00;93999.16;1020840;28;20031;-70
2020/12/12 01:32:18;;;;;;;41.15;28.08;;;;;;;-0.54;100.00;93995.75;1036468;28;20327;-70
2020/12/12 01:32:49;;;;;;;35.92;25.90;;;;;;;-0.53;100.00;93987.91;1032352;28;20707;-70
2020/12/12 01:33:20;;;;;;;39.22;27.77;;;;;;;-0.56;100.00;93988.13;1032440;28;20394;-70
2020/12/12 01:33:51;;;;;;;39.80;25.05;;;;;;;-0.55;100.00;93994.09;1032534;28;20032;-71
2020/12/12 01:34:22;;;;;;;37.67;26.02;;;;;;;-0.53;100.00;93997.38;1020632;29;20266;-70
2020/12/12 01:34:52;;;;;;;39.10;27.10;;;;;;;-0.50;100.00;93990.31;1024746;28;20194;-72
2020/12/12 01:35:23;;;;;;;38.05;26.02;;;;;;;-0.52;100.00;93994.72;1028517;28;20093;-72
2020/12/12 01:35:54;;;;;;;40.00;25.05;;;;;;;-0.55;100.00;93994.09;1020727;29;20031;-73
2020/12/12 01:36:25;;;;;;;37.35;27.55;;;;;;;-0.45;100.00;94000.31;1028721;28;20106;-72
2020/12/12 01:36:56;;;;;;;38.20;26.45;;;;;;;-0.45;100.00;94000.31;1036096;28;20101;-73
2020/12/12 01:37:27;;;;;;;40.25;26.20;;;;;;;-0.43;100.00;94001.09;1020109;28;20035;-73
2020/12/12 01:37:57;;;;;;;39.88;26.52;;;;;;;-0.41;100.00;93994.13;1028109;28;20031;-73
2020/12/12 01:38:28;;;;;;;41.03;27.02;;;;;;;-0.39;100.00;93994.84;1024199;29;20027;-71
2020/12/12 01:38:59;;;;;;;40.72;25.83;;;;;;;-0.48;100.00;93988.47;1020288;29;20488;-73
2020/12/12 01:39:30;;;;;;;40.83;26.70;;;;;;;-0.41;100.00;93987.22;1036177;28;20117;-72
2020/12/12 01:40:00;;;;;;;41.25;26.85;;;;;;;-0.40;100.00;93991.41;1028219;28;20101;-72
2020/12/12 01:40:31;;;;;;;37.28;26.17;;;;;;;-0.43;100.00;93990.81;1032155;28;20486;-72
2020/12/12 01:41:02;;;;;;;37.20;26.00;;;;;;;-0.42;100.00;94003.56;1027855;28;20027;-72
2020/12/12 01:41:33;;;;;;;36.47;25.90;;;;;;;-0.44;100.00;94005.38;1032393;28;20026;-72
2020/12/12 01:42:03;;;;;;;37.13;25.73;;;;;;;-0.45;100.00;93996.03;1028190;28;20105;-74
2020/12/12 01:42:34;;;;;;;41.33;27.90;;;;;;;-0.40;100.00;93996.56;1028101;28;20033;-75
2020/12/12 01:43:07;;;;;;;36.45;26.23;;;;;;;-0.45;100.00;93998.59;1027952;28;20035;-75
2020/12/12 01:43:38;;;;;;;41.70;26.80;;;;;;;-0.65;100.00;93979.19;1032270;28;20387;-75
2020/12/12 01:44:09;;;;;;;39.72;26.42;;;;;;;-0.55;100.00;93992.34;1040192;28;20256;-75
2020/12/12 01:44:40;;;;;;;37.15;26.90;;;;;;;-0.59;100.00;93994.25;1036066;28;20026;-72
2020/12/12 01:45:11;;;;;;;45.30;26.60;;;;;;;-0.55;100.00;93992.34;1032207;28;20055;-75
2020/12/12 01:45:42;;;;;;;40.65;26.42;;;;;;;-0.56;100.00;93990.69;1028284;28;20807;-71
2020/12/12 01:46:12;;;;;;;41.42;27.55;;;;;;;-0.52;100.00;93994.72;1032161;28;20559;-72
2020/12/12 01:46:43;;;;;;;36.97;26.67;;;;;;;-0.54;100.00;93988.84;1028124;28;20070;-71
2020/12/12 01:47:14;;;;;;;39.17;27.00;;;;;;;-0.51;100.00;93990.41;1024209;28;20031;-72
2020/12/12 01:47:45;;;;;;;37.13;25.88;;;;;;;-0.49;100.00;93992.00;1024301;28;20086;-72
2020/12/12 01:48:16;;;;;;;36.47;25.67;;;;;;;-0.54;100.00;93991.44;1032163;28;20466;-71
2020/12/12 01:48:47;;;;;;;37.08;26.23;;;;;;;-0.57;100.00;93985.63;1028109;28;20027;-73
2020/12/12 01:49:17;;;;;;;37.47;25.00;;;;;;;-0.55;100.00;93991.50;1023969;28;20031;-72
2020/12/12 01:49:50;;;;;;;37.90;25.08;;;;;;;-0.52;100.00;93981.06;1024270;29;20023;-75
2020/12/12 01:50:21;;;;;;;39.05;25.95;;;;;;;-0.51;100.00;93987.84;1036450;28;20375;-72
2020/12/12 01:50:52;;;;;;;40.35;26.92;;;;;;;-0.49;100.00;93984.28;1031959;28;20393;-76
2020/12/12 01:51:25;;;;;;;37.58;26.35;;;;;;;-0.48;100.00;93990.25;1024123;28;20484;-71
2020/12/12 01:51:56;;;;;;;40.13;26.83;;;;;;;-0.52;100.00;93989.59;1024319;29;20393;-72
2020/12/12 01:52:27;;;;;;;37.13;25.70;;;;;;;-0.45;100.00;93982.31;1032204;28;20296;-72
2020/12/12 01:52:58;;;;;;;41.28;27.02;;;;;;;-0.47;100.00;93986.72;1028090;28;20037;-71
2020/12/12 01:53:29;;;;;;;40.22;28.25;;;;;;;-0.48;100.00;93985.09;1032072;28;20276;-72
2020/12/12 01:54:00;;;;;;;40.83;27.00;;;;;;;-0.49;100.00;93992.00;1024143;29;20349;-73
2020/12/12 01:54:31;;;;;;;41.33;26.80;;;;;;;-0.51;100.00;93987.84;1020301;29;20056;-71
2020/12/12 01:55:02;;;;;;;38.65;26.42;;;;;;;-0.59;100.00;93985.72;1028194;28;20027;-71
2020/12/12 01:55:33;;;;;;;39.15;25.85;;;;;;;-0.58;100.00;93987.38;1020228;28;20290;-72
2020/12/12 01:56:04;;;;;;;40.70;27.67;;;;;;;-0.53;100.00;93985.34;1032049;28;20738;-72
2020/12/12 01:56:36;;;;;;;37.63;27.25;;;;;;;-0.48;100.00;93996.19;1032053;28;20273;-71
2020/12/12 01:57:06;;;;;;;39.95;26.05;;;;;;;-0.56;100.00;93990.69;1028050;28;20065;-72
2020/12/12 01:57:41;;;;;;;38.60;26.15;;;;;;;-0.51;100.00;93998.94;1028168;28;20270;-75
2020/12/12 01:58:13;;;;;;;37.10;24.92;;;;;;;-0.53;100.00;93994.81;1032180;28;20030;-72
2020/12/12 01:58:46;;;;;;;43.30;29.27;;;;;;;-0.47;100.00;93999.59;1032223;28;20305;-72
2020/12/12 01:59:17;;;;;;;40.30;26.65;;;;;;;-0.51;100.00;93996.38;1032198;28;20650;-74
2020/12/12 01:59:49;;;;;;;42.97;28.38;;;;;;;-0.48;100.00;94003.09;1032070;28;20265;-71
2020/12/12 02:00:20;;;;;;;41.70;26.83;;;;;;;-0.46;100.00;94001.25;1028042;28;20031;-72
2020/12/12 02:00:51;;;;;;;43.25;26.73;;;;;;;-0.48;100.00;94000.53;1020033;29;20279;-72
2020/12/12 02:01:22;;;;;;;34.60;24.48;;;;;;;-0.44;100.00;94010.53;1024241;29;20716;-75
2020/12/12 02:01:54;;;;;;;37.88;25.42;;;;;;;-0.47;100.00;94004.75;1036169;28;20064;-74
2020/12/12 02:02:25;;;;;;;39.92;26.92;;;;;;;-0.50;100.00;94004.94;1032136;28;20338;-72
2020/12/12 02:02:57;;;;;;;42.55;26.35;;;;;;;-0.53;100.00;94007.69;1024062;29;20763;-71
2020/12/12 02:03:28;;;;;;;38.40;25.85;;;;;;;-0.61;100.00;94000.41;1016264;28;20032;-72
2020/12/12 02:03:59;;;;;;;37.88;26.60;;;;;;;-0.58;100.00;94005.38;1023942;29;20358;-71
2020/12/12 02:04:30;;;;;;;41.72;29.02;;;;;;;-0.56;100.00;94008.69;1024244;28;20079;-72
2020/12/12 02:05:01;;;;;;;41.28;27.63;;;;;;;-0.52;100.00;94011.91;1016087;29;20311;-72
2020/12/12 02:05:39;;;;;;;42.50;27.50;;;;;;;-0.52;100.00;94002.44;1020157;28;20467;-73
2020/12/12 02:06:12;;;;;;;39.85;26.55;;;;;;;-0.52;100.00;94009.34;1032063;28;20265;-73
2020/12/12 02:06:43;;;;;;;37.83;24.52;;;;;;;-0.63;100.00;94004.81;1032027;28;20718;-72
2020/12/12 02:07:16;;;;;;;37.22;25.92;;;;;;;-0.67;100.00;93995.63;1028083;28;20270;-72
2020/12/12 02:07:47;;;;;;;38.95;27.92;;;;;;;-0.66;100.00;94000.69;1024126;28;20027;-74
2020/12/12 02:08:18;;;;;;;36.47;25.25;;;;;;;-0.63;100.00;94004.81;1032212;28;20267;-71
2020/12/12 02:08:56;;;;;;;36.75;25.23;;;;;;;-0.65;100.00;94001.50;1020172;29;20032;-72
2020/12/12 02:09:27;;;;;;;43.20;28.45;;;;;;;-0.64;100.00;94005.72;1020272;29;20259;-73
2020/12/12 02:09:57;;;;;;;42.53;26.48;;;;;;;-0.66;100.00;94004.97;1032174;28;20285;-72
2020/12/12 02:10:28;;;;;;;35.25;25.38;;;;;;;-0.70;100.00;93999.19;1024206;29;20019;-72
2020/12/12 02:10:59;;;;;;;41.70;27.40;;;;;;;-0.66;100.00;94005.84;1023974;28;20026;-72
2020/12/12 02:11:30;;;;;;;40.40;27.75;;;;;;;-0.62;100.00;94001.31;1031718;28;20018;-73
2020/12/12 02:12:01;;;;;;;37.85;26.77;;;;;;;-0.64;100.00;93995.44;1023881;29;20074;-72
2020/12/12 02:12:31;;;;;;;39.72;27.17;;;;;;;-0.61;100.00;94002.97;1028082;28;20030;-72
2020/12/12 02:13:04;;;;;;;36.38;25.65;;;;;;;-0.61;100.00;93992.69;1036006;28;20478;-74
2020/12/12 02:13:35;;;;;;;44.20;28.88;;;;;;;-0.58;100.00;94000.25;1028109;28;20059;-72
2020/12/12 02:14:09;;;;;;;39.72;26.10;;;;;;;-0.70;100.00;93983.75;1027883;28;20255;-71
2020/12/12 02:14:40;;;;;;;37.67;25.88;;;;;;;-0.48;100.00;93995.38;1024105;29;20090;-72
2020/12/12 02:15:11;;;;;;;35.30;25.50;;;;;;;-0.52;100.00;93999.06;1032041;28;20395;-72
2020/12/12 02:15:42;;;;;;;38.05;26.23;;;;;;;-0.48;100.00;94003.09;1028091;28;20046;-71
2020/12/12 02:16:14;;;;;;;34.95;25.17;;;;;;;-0.43;100.00;94007.06;1020015;29;20315;-72
2020/12/12 02:16:56;;;;;;;40.58;27.52;;;;;;;-0.40;100.00;93999.13;1032028;28;20249;-72
2020/12/12 02:17:27;;;;;;;40.40;27.58;;;;;;;-0.36;100.00;93996.41;1032105;28;20630;-71
2020/12/12 02:17:59;;;;;;;39.30;26.73;;;;;;;-0.36;100.00;93993.81;1027875;28;20250;-72
2020/12/12 02:18:29;;;;;;;41.67;27.67;;;;;;;-0.41;100.00;93997.50;1032162;28;20022;-72
2020/12/12 02:19:00;;;;;;;37.22;26.70;;;;;;;-0.41;100.00;93999.25;1023866;28;20259;-71
2020/12/12 02:19:32;;;;;;;38.58;26.98;;;;;;;-0.35;100.00;93995.50;1032100;28;20567;-72
2020/12/12 02:20:04;;;;;;;38.15;25.60;;;;;;;-0.39;100.00;94000.00;1031933;28;20773;-72
2020/12/12 02:20:35;;;;;;;35.92;26.45;;;;;;;-0.38;100.00;93996.47;1028116;28;20273;-73
2020/12/12 02:21:06;;;;;;;36.47;24.77;;;;;;;-0.40;100.00;93985.47;1019864;29;20415;-72
2020/12/12 02:21:37;;;;;;;38.20;26.92;;;;;;;-0.34;100.00;93999.69;1016152;29;20389;-72
2020/12/12 02:22:08;;;;;;;34.85;25.30;;;;;;;-0.30;100.00;93996.03;1023966;29;20319;-72